createdAt,value
2023-03-16T00:04:55.919Z,99.90
2023-03-16T00:09:59.291Z,99.90
2023-03-16T00:15:03.407Z,99.90
2023-03-16T00:20:09.461Z,99.90
2023-03-16T00:25:15.318Z,99.90
2023-03-16T00:30:19.167Z,99.90
2023-03-16T00:35:23.781Z,99.90
2023-03-16T00:40:27.205Z,99.90
2023-03-16T00:45:30.517Z,99.90
2023-03-16T00:50:35.148Z,99.90
2023-03-16T00:55:38.449Z,99.90
2023-03-16T01:00:43.030Z,99.90
2023-03-16T01:05:47.655Z,99.90
2023-03-16T01:10:51.240Z,99.90
2023-03-16T01:15:54.551Z,99.90
2023-03-16T01:20:59.192Z,99.90
2023-03-16T01:26:02.936Z,99.90
2023-03-16T01:31:08.215Z,99.90
2023-03-16T01:36:15.670Z,99.90
2023-03-16T01:41:32.057Z,99.90
2023-03-16T01:46:35.508Z,99.90
2023-03-16T01:51:46.814Z,99.90
2023-03-16T01:56:58.109Z,99.90
2023-03-16T02:02:02.793Z,99.90
2023-03-16T02:07:11.344Z,99.90
2023-03-16T02:12:18.954Z,99.90
2023-03-16T02:17:28.623Z,99.90
2023-03-16T02:22:42.533Z,99.90
2023-03-16T02:27:54.540Z,99.90
2023-03-16T02:32:59.468Z,99.90
2023-03-16T02:38:03.325Z,99.90
2023-03-16T02:43:14.577Z,99.90
2023-03-16T02:48:29.778Z,99.90
2023-03-16T02:53:33.146Z,99.90
2023-03-16T02:58:38.378Z,99.90
2023-03-16T03:03:48.497Z,99.90
2023-03-16T03:08:52.430Z,99.90
2023-03-16T03:13:57.053Z,99.90
2023-03-16T03:19:04.933Z,99.90
2023-03-16T03:24:12.762Z,99.90
2023-03-16T03:29:16.211Z,99.90
2023-03-16T03:34:20.946Z,99.90
2023-03-16T03:39:24.718Z,99.90
2023-03-16T03:44:28.749Z,99.90
2023-03-16T03:49:33.779Z,99.90
2023-03-16T03:54:37.830Z,99.90
2023-03-16T03:59:45.887Z,99.90
2023-03-16T04:05:06.387Z,99.90
2023-03-16T04:10:10.391Z,99.90
2023-03-16T04:15:17.416Z,99.90
2023-03-16T04:20:37.233Z,99.90
2023-03-16T04:25:41.251Z,99.90
2023-03-16T04:30:45.986Z,99.90
2023-03-16T04:36:03.685Z,99.90
2023-03-16T04:41:09.319Z,99.90
2023-03-16T04:46:18.941Z,99.90
2023-03-16T04:51:24.206Z,99.90
2023-03-16T04:56:41.606Z,99.90
2023-03-16T05:02:08.180Z,99.90
2023-03-16T05:07:13.767Z,99.90
2023-03-16T05:12:21.341Z,99.90
2023-03-16T05:17:29.767Z,99.90
2023-03-16T05:22:35.243Z,99.90
2023-03-16T05:28:02.107Z,99.90
2023-03-16T05:33:30.300Z,99.90
2023-03-16T05:38:43.853Z,99.90
2023-03-16T05:43:51.462Z,99.90
2023-03-16T05:48:56.316Z,99.90
2023-03-16T05:54:02.128Z,99.90
2023-03-16T05:59:11.672Z,99.90
2023-03-16T06:04:17.102Z,99.90
2023-03-16T06:09:22.168Z,99.90
2023-03-16T06:14:25.713Z,99.90
2023-03-16T06:19:32.148Z,99.90
2023-03-16T06:24:40.023Z,99.90
2023-03-16T06:29:43.771Z,99.90
2023-03-16T06:34:47.905Z,99.90
2023-03-16T06:39:53.135Z,99.90
2023-03-16T06:44:57.172Z,99.90
2023-03-16T06:50:00.626Z,99.90
2023-03-16T06:55:06.605Z,99.90
2023-03-16T07:00:15.704Z,99.90
2023-03-16T07:05:19.224Z,99.90
2023-03-16T07:10:26.247Z,99.90
2023-03-16T07:15:29.762Z,99.90
2023-03-16T07:20:35.725Z,99.90
2023-03-16T07:25:45.158Z,99.90
2023-03-16T07:31:02.905Z,99.90
2023-03-16T07:36:13.166Z,99.90
2023-03-16T07:41:25.085Z,99.90
2023-03-16T07:46:28.780Z,99.90
2023-03-16T07:51:32.143Z,99.90
2023-03-16T07:56:48.278Z,99.90
2023-03-16T08:02:01.372Z,99.90
2023-03-16T08:07:05.139Z,99.90
2023-03-16T08:12:24.661Z,99.90
2023-03-16T08:17:28.347Z,99.90
2023-03-16T08:22:32.771Z,99.90
2023-03-16T08:27:38.838Z,99.90
2023-03-16T08:32:43.598Z,99.90
2023-03-16T08:37:47.488Z,99.90
2023-03-16T08:42:52.503Z,99.90
2023-03-16T08:47:56.284Z,99.90
2023-03-16T08:52:59.636Z,99.90
2023-03-16T08:58:04.324Z,99.90
2023-03-16T09:03:08.156Z,99.30
2023-03-16T09:08:12.720Z,98.80
2023-03-16T09:13:17.417Z,98.20
2023-03-16T09:18:21.266Z,97.60
2023-03-16T09:23:24.786Z,97.00
2023-03-16T09:28:30.863Z,96.30
2023-03-16T09:33:35.431Z,95.30
2023-03-16T09:38:39.335Z,94.40
2023-03-16T09:44:03.703Z,93.60
2023-03-16T09:49:08.019Z,92.80
2023-03-16T09:54:21.815Z,92.10
2023-03-16T09:59:29.172Z,91.30
2023-03-16T10:04:45.088Z,90.50
2023-03-16T10:09:56.703Z,89.40
2023-03-16T10:15:08.678Z,88.10
2023-03-16T10:20:17.978Z,86.70
2023-03-16T10:25:26.570Z,85.70
2023-03-16T10:30:34.413Z,84.60
2023-03-16T10:35:46.063Z,83.20
2023-03-16T10:40:49.586Z,82.20
2023-03-16T10:46:00.870Z,81.70
2023-03-16T10:51:09.425Z,81.00
2023-03-16T10:56:15.175Z,80.60
2023-03-16T11:01:22.907Z,80.30
2023-03-16T11:06:31.188Z,79.60
2023-03-16T11:11:35.390Z,79.00
2023-03-16T11:16:44.143Z,78.40
2023-03-16T11:21:55.161Z,77.90
2023-03-16T11:27:02.257Z,77.50
2023-03-16T11:32:15.393Z,77.00
2023-03-16T11:37:32.526Z,76.60
2023-03-16T11:42:40.193Z,75.90
2023-03-16T11:48:11.163Z,74.90
2023-03-16T11:53:22.815Z,74.20
2023-03-16T11:58:45.372Z,73.70
2023-03-16T12:04:24.560Z,73.10
2023-03-16T12:09:59.187Z,72.50
2023-03-16T12:15:24.348Z,71.90
2023-03-16T12:20:32.058Z,71.10
2023-03-16T12:25:40.353Z,70.50
2023-03-16T12:30:51.238Z,70.00
2023-03-16T12:36:02.963Z,69.20
2023-03-16T12:41:26.906Z,68.90
2023-03-16T12:46:38.974Z,68.60
2023-03-16T12:51:44.163Z,68.50
2023-03-16T12:56:50.796Z,68.30
2023-03-16T13:01:58.907Z,68.40
2023-03-16T13:07:09.526Z,68.10
2023-03-16T13:12:26.426Z,67.80
2023-03-16T13:17:32.468Z,66.70
2023-03-16T13:22:53.230Z,65.50
2023-03-16T13:28:00.532Z,65.80
2023-03-16T13:33:16.650Z,65.10
2023-03-16T13:38:22.981Z,64.70
2023-03-16T13:43:30.193Z,64.30
2023-03-16T13:48:40.327Z,63.90
2023-03-16T13:53:44.965Z,63.30
2023-03-16T13:58:52.097Z,63.00
2023-03-16T14:03:58.607Z,63.00
2023-03-16T14:09:05.240Z,62.80
2023-03-16T14:14:18.550Z,62.60
2023-03-16T14:19:28.591Z,62.70
2023-03-16T14:24:36.297Z,62.90
2023-03-16T14:29:44.294Z,62.60
2023-03-16T14:34:50.943Z,62.50
2023-03-16T14:40:03.264Z,62.70
2023-03-16T14:45:14.242Z,63.00
2023-03-16T14:50:24.189Z,63.00
2023-03-16T14:55:28.222Z,63.00
2023-03-16T15:00:42.689Z,63.20
2023-03-16T15:05:52.050Z,63.00
2023-03-16T15:10:56.434Z,63.00
2023-03-16T15:16:01.227Z,63.00
2023-03-16T15:21:08.028Z,62.90
2023-03-16T15:26:12.258Z,63.00
2023-03-16T15:31:17.218Z,63.20
2023-03-16T15:36:24.380Z,63.20
2023-03-16T15:41:32.341Z,63.20
2023-03-16T15:46:43.216Z,63.50
2023-03-16T15:51:46.570Z,63.60
2023-03-16T15:56:54.450Z,63.60
2023-03-16T16:01:59.503Z,63.60
2023-03-16T16:07:02.932Z,63.60
2023-03-16T16:12:06.850Z,64.10
2023-03-16T16:17:15.730Z,63.90
2023-03-16T16:22:19.100Z,64.00
2023-03-16T16:27:22.570Z,64.30
2023-03-16T16:32:27.386Z,64.50
2023-03-16T16:37:31.044Z,64.70
2023-03-16T16:42:34.565Z,64.80
2023-03-16T16:47:39.214Z,65.00
2023-03-16T16:52:42.752Z,65.10
2023-03-16T16:57:48.032Z,65.60
2023-03-16T17:02:55.884Z,65.70
2023-03-16T17:08:04.070Z,65.90
2023-03-16T17:13:07.898Z,66.30
2023-03-16T17:18:14.953Z,66.60
2023-03-16T17:23:29.263Z,67.00
2023-03-16T17:28:38.697Z,67.20
2023-03-16T17:33:43.416Z,67.60
2023-03-16T17:38:47.414Z,67.90
2023-03-16T17:43:51.187Z,68.10
2023-03-16T17:48:56.697Z,68.20
2023-03-16T17:53:59.756Z,68.20
2023-03-16T17:59:13.782Z,68.40
2023-03-16T18:04:20.130Z,68.90
2023-03-16T18:09:23.663Z,69.30
2023-03-16T18:14:35.351Z,69.70
2023-03-16T18:19:40.857Z,70.20
2023-03-16T18:24:44.989Z,70.60
2023-03-16T18:29:49.128Z,70.90
2023-03-16T18:34:55.009Z,71.00
2023-03-16T18:39:58.397Z,71.10
2023-03-16T18:45:01.736Z,71.20
2023-03-16T18:50:07.747Z,71.10
2023-03-16T18:55:17.097Z,71.30
2023-03-16T19:00:22.733Z,71.30
2023-03-16T19:05:31.760Z,71.30
2023-03-16T19:10:37.500Z,71.30
2023-03-16T19:15:40.531Z,71.80
2023-03-16T19:20:50.148Z,72.00
2023-03-16T19:25:55.993Z,72.10
2023-03-16T19:30:59.459Z,72.40
2023-03-16T19:36:04.777Z,72.60
2023-03-16T19:41:19.404Z,72.90
2023-03-16T19:46:23.426Z,73.20
2023-03-16T19:51:29.291Z,73.60
2023-03-16T19:56:32.841Z,73.80
2023-03-16T20:01:36.160Z,74.30
2023-03-16T20:06:41.385Z,74.50
2023-03-16T20:11:45.309Z,74.60
2023-03-16T20:16:49.415Z,74.80
2023-03-16T20:21:54.386Z,75.00
2023-03-16T20:26:58.110Z,75.20
2023-03-16T20:32:02.204Z,75.40
2023-03-16T20:37:21.170Z,75.60
2023-03-16T20:42:28.634Z,76.00
2023-03-16T20:47:32.250Z,76.40
2023-03-16T20:52:37.062Z,76.70
2023-03-16T20:57:43.370Z,77.00
2023-03-16T21:02:47.300Z,77.30
2023-03-16T21:07:53.222Z,77.60
2023-03-16T21:12:58.185Z,77.90
2023-03-16T21:18:03.809Z,78.10
2023-03-16T21:23:13.103Z,78.30
2023-03-16T21:28:18.337Z,78.70
2023-03-16T21:33:29.900Z,78.90
2023-03-16T21:38:37.365Z,79.20
2023-03-16T21:43:40.686Z,79.40
2023-03-16T21:48:44.623Z,79.70
2023-03-16T21:53:50.263Z,79.80
2023-03-16T21:58:53.693Z,80.10
2023-03-16T22:03:58.456Z,80.40
2023-03-16T22:09:04.121Z,80.70
2023-03-16T22:14:09.905Z,80.90
2023-03-16T22:19:14.725Z,81.10
2023-03-16T22:24:21.122Z,81.50
2023-03-16T22:29:26.521Z,81.50
2023-03-16T22:34:33.002Z,81.60
2023-03-16T22:39:39.669Z,81.50
2023-03-16T22:44:42.880Z,81.60
2023-03-16T22:49:46.234Z,81.50
2023-03-16T22:54:50.936Z,81.50
2023-03-16T22:59:54.497Z,81.90
2023-03-16T23:04:57.757Z,81.50
2023-03-16T23:10:02.501Z,81.50
2023-03-16T23:15:16.339Z,81.20
2023-03-16T23:20:22.610Z,81.30
2023-03-16T23:25:27.574Z,81.40
2023-03-16T23:30:32.055Z,81.40
2023-03-16T23:35:36.038Z,81.40
2023-03-16T23:40:41.520Z,81.40
2023-03-16T23:45:47.738Z,81.60
2023-03-16T23:50:54.666Z,81.40
2023-03-16T23:56:00.015Z,81.40
